Time;durP1;ratioP1;P1;durP2;ratioP2;P2;SDS_P1;SDS_P2;PMS_P1;PMS_P2;Temp;Humidity;BMP_temperature;BMP_pressure;BME280_temperature;BME280_humidity;BME280_pressure;Samples;Min_cycle;Max_cycle;Signal;HPM_P1;HPM_P2
2021/12/04 00:02:11;;;;;;;5.13;2.20;;;;;;;;;;4991356;28;20547;-90
2021/12/04 00:04:41;;;;;;;3.73;2.27;;;;;;;;;;4996145;28;20453;-90
2021/12/04 00:07:10;;;;;;;6.60;3.47;;;2.10;99.90;;;;;;4997062;28;20442;-87
2021/12/04 00:09:38;;;;;;;2.37;2.00;;;2.20;99.90;;;;;;4996809;28;20995;-92
2021/12/04 00:12:06;;;;;;;2.53;2.33;;;2.20;99.90;;;;;;4997014;28;20450;-92
2021/12/04 00:14:33;;;;;;;7.67;4.67;;;2.20;99.90;;;;;;4996911;28;20553;-91
2021/12/04 00:17:02;;;;;;;5.63;3.60;;;2.20;99.90;;;;;;4993573;28;20515;-90
2021/12/04 00:19:30;;;;;;;2.80;1.83;;;2.20;99.90;;;;;;4996018;28;20445;-89
2021/12/04 00:21:57;;;;;;;3.70;1.40;;;;;;;;;;4993283;28;20485;-90
2021/12/04 00:24:24;;;;;;;4.33;2.63;;;;;;;;;;4993622;28;20488;-89
2021/12/04 00:26:53;;;;;;;3.07;2.00;;;;;;;;;;4996766;28;20457;-92
2021/12/04 00:29:20;;;;;;;3.40;0.97;;;;;;;;;;4996791;28;20933;-93
2021/12/04 00:31:49;;;;;;;2.60;1.60;;;;;;;;;;4993578;28;20496;-88
2021/12/04 00:34:20;;;;;;;3.00;2.40;;;2.30;99.90;;;;;;4995519;28;20820;-92
2021/12/04 00:37:09;;;;;;;2.50;1.53;;;;;;;;;;4993170;28;20557;-92
2021/12/04 00:50:37;;;;;;;5.00;2.43;;;2.80;99.90;;;;;;4995062;28;20952;-90
2021/12/04 00:53:04;;;;;;;3.40;2.30;;;;;;;;;;4996036;28;20441;-87
2021/12/04 00:55:31;;;;;;;10.07;2.20;;;;;;;;;;4995942;28;20454;-88
2021/12/04 00:57:58;;;;;;;3.00;1.40;;;;;;;;;;4995828;28;20465;-89
2021/12/04 01:00:26;;;;;;;4.50;2.00;;;;;;;;;;4992826;28;20442;-90
2021/12/04 01:02:53;;;;;;;2.37;1.60;;;;;;;;;;4995705;28;20438;-89
2021/12/04 01:05:20;;;;;;;1.10;1.00;;;;;;;;;;4995162;28;20791;-87
2021/12/04 01:07:48;;;;;;;1.70;0.50;;;3.00;99.90;;;;;;4995437;28;20465;-92
2021/12/04 01:10:16;;;;;;;2.93;1.33;;;;;;;;;;4995675;28;20450;-91
2021/12/04 01:12:43;;;;;;;2.17;1.70;;;;;;;;;;4995576;28;20433;-92
2021/12/04 01:15:11;;;;;;;2.10;1.80;;;2.60;99.90;;;;;;4995418;28;20457;-90
2021/12/04 01:17:38;;;;;;;1.33;1.10;;;;;;;;;;4995297;28;20941;-88
2021/12/04 01:20:05;;;;;;;1.80;1.17;;;;;;;;;;4997063;28;20454;-89
2021/12/04 01:22:34;;;;;;;1.73;1.53;;;;;;;;;;5018876;28;20477;-89
2021/12/04 01:25:03;;;;;;;3.10;1.60;;;2.70;99.90;;;;;;5007358;28;20449;-92
2021/12/04 01:27:30;;;;;;;1.50;1.40;;;;;;;;;;4992182;28;20776;-89
2021/12/04 01:29:57;;;;;;;2.17;1.80;;;;;;;;;;4994868;28;20450;-88
2021/12/04 01:32:24;;;;;;;1.20;1.03;;;;;;;;;;4994849;28;21089;-88
2021/12/04 01:34:51;;;;;;;2.90;1.90;;;;;;;;;;4994632;28;20446;-88
2021/12/04 01:37:18;;;;;;;3.43;2.47;;;;;;;;;;4995100;28;20449;-90
2021/12/04 01:39:45;;;;;;;4.37;2.57;;;;;;;;;;4994836;28;20453;-88
2021/12/04 01:42:17;;;;;;;8.97;1.00;;;2.10;99.90;;;;;;4994809;28;20858;-87
2021/12/04 01:44:44;;;;;;;5.93;2.30;;;;;;;;;;4994996;28;20446;-88
2021/12/04 01:47:13;;;;;;;0.93;0.90;;;2.00;99.90;;;;;;4994973;28;20530;-88
2021/12/04 01:49:40;;;;;;;3.60;2.53;;;;;;;;;;4989758;28;20457;-89
2021/12/04 01:52:07;;;;;;;1.80;1.23;;;1.90;99.90;;;;;;4994619;28;20454;-89
2021/12/04 01:54:34;;;;;;;3.30;1.63;;;;;;;;;;4994463;28;20453;-89
2021/12/04 01:57:01;;;;;;;2.20;1.33;;;;;;;;;;4991564;28;20874;-89
2021/12/04 01:59:30;;;;;;;3.47;2.27;;;;;;;;;;4994498;28;20561;-89
2021/12/04 02:01:57;;;;;;;1.70;1.10;;;;;;;;;;4994550;28;20474;-87
2021/12/04 02:04:24;;;;;;;2.93;2.63;;;;;;;;;;4992026;28;20457;-91
2021/12/04 02:06:52;;;;;;;3.87;2.97;;;;;;;;;;4994451;28;20450;-91
2021/12/04 02:09:19;;;;;;;6.70;2.40;;;;;;;;;;4994588;28;20461;-90
2021/12/04 02:11:46;;;;;;;2.53;1.00;;;;;;;;;;4994499;28;20468;-88
2021/12/04 02:14:14;;;;;;;3.20;2.20;;;;;;;;;;4994544;28;20446;-89
2021/12/04 02:16:42;;;;;;;5.10;2.70;;;1.80;99.90;;;;;;4994539;28;20461;-92
2021/12/04 02:19:09;;;;;;;3.23;2.40;;;;;;;;;;4988940;28;20457;-90
2021/12/04 02:21:37;;;;;;;9.07;3.10;;;1.70;99.90;;;;;;4992604;28;21000;-89
2021/12/04 02:24:05;;;;;;;4.13;2.90;;;;;;;;;;4990446;28;20470;-90
2021/12/04 02:26:32;;;;;;;9.57;2.10;;;;;;;;;;4994437;28;20462;-87
2021/12/04 02:28:59;;;;;;;4.33;2.67;;;;;;;;;;4994353;28;20454;-88
2021/12/04 02:31:26;;;;;;;4.53;2.33;;;;;;;;;;4994190;28;20458;-89
2021/12/04 02:33:54;;;;;;;2.90;2.60;;;1.80;99.90;;;;;;4993253;28;20465;-93
2021/12/04 02:36:21;;;;;;;3.07;2.37;;;;;;;;;;4994102;28;20449;-92
2021/12/04 02:38:51;;;;;;;2.20;1.37;;;1.50;99.90;;;;;;4994081;28;20457;-88
2021/12/04 02:41:19;;;;;;;6.17;3.23;;;1.80;99.90;;;;;;4993790;28;20588;-91
2021/12/04 02:43:46;;;;;;;2.60;2.23;;;;;;;;;;4994379;28;20449;-89
2021/12/04 02:46:14;;;;;;;2.00;1.23;;;;;;;;;;4994533;28;20446;-88
2021/12/04 02:48:41;;;;;;;4.03;2.57;;;;;;;;;;4993883;28;20453;-91
2021/12/04 02:51:09;;;;;;;3.43;2.57;;;;;;;;;;4994288;28;20473;-92
2021/12/04 02:53:36;;;;;;;3.30;2.60;;;;;;;;;;4994187;28;20481;-89
2021/12/04 02:56:06;;;;;;;3.40;2.53;;;1.90;99.90;;;;;;4994447;28;20454;-91
2021/12/04 02:58:33;;;;;;;4.33;2.87;;;;;;;;;;4991179;28;20481;-91
2021/12/04 03:01:00;;;;;;;4.97;2.50;;;;;;;;;;4995167;28;20484;-89
2021/12/04 03:03:28;;;;;;;3.00;2.33;;;;;;;;;;4997162;28;20461;-90
2021/12/04 03:05:55;;;;;;;5.00;2.70;;;;;;;;;;4997583;28;20580;-91
2021/12/04 03:08:22;;;;;;;3.60;2.50;;;;;;;;;;4997914;28;20521;-88
2021/12/04 03:10:50;;;;;;;3.57;2.67;;;;;;;;;;4997792;28;20774;-88
2021/12/04 03:13:20;;;;;;;5.10;2.50;;;2.00;99.90;;;;;;4997639;28;20785;-87
2021/12/04 03:15:56;;;;;;;3.20;2.30;;;;;;;;;;4997546;28;20446;-88
2021/12/04 03:18:23;;;;;;;3.53;2.13;;;;;;;;;;4996444;28;20452;-89
2021/12/04 03:20:52;;;;;;;1.33;1.23;;;;;;;;;;4997629;28;20488;-88
2021/12/04 03:23:24;;;;;;;1.90;1.67;;;;;;;;;;4994529;28;20537;-89
2021/12/04 03:25:54;;;;;;;2.30;1.80;;;;;;;;;;4997890;28;20555;-89
2021/12/04 03:28:22;;;;;;;2.27;1.37;;;2.10;99.90;;;;;;4994466;28;20454;-88
2021/12/04 03:30:52;;;;;;;1.00;0.60;;;;;;;;;;4997451;28;20492;-88
2021/12/04 03:41:45;;;;;;;1.90;1.37;;;;;;;;;;4956334;29;20549;-88
2021/12/04 03:44:14;;;;;;;1.30;1.00;;;2.30;99.90;;;;;;4987307;28;20454;-90
2021/12/04 03:46:44;;;;;;;1.87;1.17;;;;;;;;;;4993109;28;20442;-89
2021/12/04 03:49:11;;;;;;;0.90;0.80;;;;;;;;;;4996618;28;20789;-90
2021/12/04 03:51:38;;;;;;;9.77;1.77;;;;;;;;;;4997334;28;20446;-89
2021/12/04 03:54:05;;;;;;;1.73;1.30;;;;;;;;;;4997088;28;20461;-89
2021/12/04 03:56:33;;;;;;;1.60;1.47;;;;;;;;;;4997034;28;20445;-89
2021/12/04 03:59:00;;;;;;;1.50;0.67;;;;;;;;;;5002528;28;20481;-89
2021/12/04 04:01:29;;;;;;;1.00;0.90;;;2.60;99.90;;;;;;5021355;28;20417;-89
2021/12/04 04:03:56;;;;;;;0.80;0.70;;;;;;;;;;5005210;28;20441;-88
2021/12/04 04:06:23;;;;;;;1.50;0.90;;;;;;;;;;4996554;28;20453;-88
2021/12/04 04:08:50;;;;;;;0.50;0.50;;;;;;;;;;4993632;28;20446;-90
2021/12/04 04:11:17;;;;;;;0.90;0.80;;;;;;;;;;4994528;28;20458;-88
2021/12/04 04:13:45;;;;;;;2.20;1.10;;;;;;;;;;4993165;28;20453;-89
2021/12/04 04:16:12;;;;;;;0.83;0.83;;;;;;;;;;4996384;28;20831;-89
2021/12/04 04:18:41;;;;;;;1.20;0.97;;;2.80;99.90;;;;;;4995356;28;20458;-88
2021/12/04 04:21:08;;;;;;;0.73;0.50;;;;;;;;;;4993254;28;20457;-88
2021/12/04 04:23:37;;;;;;;0.50;0.40;;;;;;;;;;4996056;28;20502;-88
2021/12/04 04:26:05;;;;;;;0.90;0.70;;;;;;;;;;4993182;28;20516;-88
2021/12/04 04:28:32;;;;;;;1.00;0.60;;;;;;;;;;4993184;28;20454;-87
2021/12/04 04:30:59;;;;;;;0.50;0.50;;;;;;;;;;4991314;28;20506;-91
2021/12/04 04:33:26;;;;;;;0.90;0.50;;;;;;;;;;4995004;28;20485;-90
2021/12/04 04:36:07;;;;;;;1.03;0.50;;;3.30;99.90;;;;;;4996215;28;20438;-88
2021/12/04 04:38:43;;;;;;;1.33;0.47;;;;;;;;;;4992039;28;20453;-90
2021/12/04 05:11:40;;;;;;;4.47;0.30;;;;;;;;;;4995442;28;20437;-88
2021/12/04 05:14:07;;;;;;;0.40;0.40;;;;;;;;;;4995471;28;20497;-89
2021/12/04 05:16:49;;;;;;;0.30;0.20;;;3.50;99.90;;;;;;4995439;28;20450;-89
2021/12/04 05:19:27;;;;;;;0.40;0.30;;;;;;;;;;4994520;28;20450;-90
2021/12/04 05:21:55;;;;;;;0.40;0.20;;;3.50;99.90;;;;;;4995165;28;20536;-89
2021/12/04 05:24:24;;;;;;;0.40;0.30;;;3.60;99.90;;;;;;4994440;28;20465;-89
2021/12/04 05:26:51;;;;;;;6.60;0.40;;;;;;;;;;4991971;28;20454;-88
2021/12/04 05:29:18;;;;;;;1.03;0.60;;;;;;;;;;4994873;28;20454;-88
2021/12/04 05:31:46;;;;;;;0.40;0.30;;;;;;;;;;4995072;28;20453;-89
2021/12/04 05:34:13;;;;;;;0.30;0.20;;;;;;;;;;4994253;28;20454;-90
2021/12/04 05:36:40;;;;;;;0.60;0.43;;;;;;;;;;4960738;28;20457;-88
2021/12/04 05:39:07;;;;;;;0.30;0.20;;;;;;;;;;4991929;28;20469;-90
2021/12/04 05:41:36;;;;;;;0.30;0.20;;;3.80;99.90;;;;;;4995004;28;20446;-89
2021/12/04 05:44:07;;;;;;;0.40;0.30;;;;;;;;;;4991773;28;20923;-89
2021/12/04 05:46:38;;;;;;;0.40;0.30;;;;;;;;;;4994690;28;20450;-89
2021/12/04 05:49:10;;;;;;;0.37;0.30;;;;;;;;;;4993918;28;20453;-90
2021/12/04 05:51:51;;;;;;;0.40;0.27;;;;;;;;;;4994895;28;20450;-88
2021/12/04 05:57:13;;;;;;;0.63;0.33;;;3.90;99.90;;;;;;4994405;28;20437;-89
2021/12/04 05:59:42;;;;;;;0.30;0.20;;;;;;;;;;4990631;28;20481;-89
2021/12/04 06:02:09;;;;;;;0.50;0.30;;;;;;;;;;4994572;28;22782;-90
2021/12/04 06:04:36;;;;;;;0.50;0.40;;;;;;;;;;4994144;28;20976;-90
2021/12/04 06:07:04;;;;;;;0.40;0.30;;;;;;;;;;4994889;28;20450;-90
2021/12/04 06:09:31;;;;;;;0.40;0.30;;;;;;;;;;4994658;28;20450;-89
2021/12/04 06:12:04;;;;;;;0.30;0.20;;;;;;;;;;4990682;28;20453;-89
2021/12/04 06:14:32;;;;;;;0.40;0.30;;;3.90;99.90;;;;;;4994706;28;20507;-90
2021/12/04 06:17:00;;;;;;;0.30;0.20;;;;;;;;;;4994546;28;20460;-89
2021/12/04 06:22:37;;;;;;;0.30;0.20;;;;;;;;;;4993856;28;20453;-89
2021/12/04 06:24:59;;;;;;;0.90;0.27;;;;;;;;;;4994270;28;20496;-89
2021/12/04 06:27:26;;;;;;;0.40;0.30;;;;;;;;;;4994603;28;20429;-90
2021/12/04 06:29:54;;;;;;;0.50;0.30;;;4.00;99.90;;;;;;4994881;28;20465;-90
2021/12/04 06:32:21;;;;;;;0.53;0.40;;;;;;;;;;4993049;28;20461;-90
2021/12/04 06:34:48;;;;;;;0.70;0.50;;;;;;;;;;4994362;28;20449;-90
2021/12/04 06:37:17;;;;;;;0.80;0.60;;;;;;;;;;5015383;28;20438;-89
2021/12/04 06:39:44;;;;;;;0.70;0.40;;;;;;;;;;5020550;28;20462;-89
2021/12/04 06:42:11;;;;;;;0.60;0.60;;;;;;;;;;4998585;28;20445;-90
2021/12/04 06:44:38;;;;;;;4.20;0.50;;;;;;;;;;4995245;28;20503;-89
2021/12/04 06:47:06;;;;;;;1.67;0.67;;;4.20;99.90;;;;;;4998587;28;20926;-89
2021/12/04 06:49:36;;;;;;;0.93;0.93;;;;;;;;;;4993082;28;20450;-90
2021/12/04 06:52:07;;;;;;;0.40;0.30;;;;;;;;;;4998414;28;20798;-91
2021/12/04 06:54:37;;;;;;;0.53;0.30;;;;;;;;;;4998364;28;20484;-90
2021/12/04 06:57:08;;;;;;;3.40;2.37;;;;;;;;;;4998374;28;20477;-89
2021/12/04 06:59:38;;;;;;;1.70;0.87;;;;;;;;;;4998156;28;21000;-89
2021/12/04 07:02:23;;;;;;;0.73;0.67;;;4.30;99.90;;;;;;4998897;28;20452;-91
2021/12/04 07:04:51;;;;;;;1.17;0.70;;;;;;;;;;4997692;28;20525;-92
2021/12/04 07:07:18;;;;;;;0.40;0.30;;;;;;;;;;4996648;28;20462;-90
2021/12/04 07:09:46;;;;;;;0.40;0.30;;;;;;;;;;4996262;28;20461;-93
2021/12/04 07:12:13;;;;;;;0.53;0.50;;;;;;;;;;4998496;28;20445;-90
2021/12/04 07:14:40;;;;;;;0.30;0.20;;;;;;;;;;4999370;28;20960;-90
2021/12/04 07:17:09;;;;;;;0.87;0.67;;;4.50;99.90;;;;;;4998798;28;20467;-90
2021/12/04 07:19:39;;;;;;;0.63;0.30;;;;;;;;;;4995672;28;20496;-92
2021/12/04 07:22:15;;;;;;;0.40;0.20;;;4.50;99.90;;;;;;4999606;28;20942;-93
2021/12/04 07:24:43;;;;;;;1.03;0.40;;;4.50;99.90;;;;;;4996328;28;20477;-92
2021/12/04 07:27:10;;;;;;;0.40;0.40;;;;;;;;;;4994440;28;20438;-91
2021/12/04 07:29:37;;;;;;;4.20;2.80;;;;;;;;;;4998318;28;20449;-92
2021/12/04 07:32:05;;;;;;;0.40;0.30;;;;;;;;;;4998672;28;20504;-92
2021/12/04 07:34:33;;;;;;;1.20;1.10;;;4.60;99.90;;;;;;4995430;28;20437;-92
2021/12/04 07:37:03;;;;;;;0.40;0.40;;;4.40;99.90;;;;;;4994481;28;20970;-93
2021/12/04 07:39:30;;;;;;;0.40;0.30;;;;;;;;;;4994066;28;20470;-92
2021/12/04 07:41:57;;;;;;;0.93;0.33;;;;;;;;;;4993385;28;20461;-91
2021/12/04 07:44:25;;;;;;;0.40;0.20;;;;;;;;;;4994896;28;20497;-92
2021/12/04 07:46:53;;;;;;;0.40;0.30;;;;;;;;;;4997944;28;20441;-92
2021/12/04 07:49:20;;;;;;;0.50;0.40;;;;;;;;;;4997729;28;20541;-91
2021/12/04 07:51:50;;;;;;;0.50;0.50;;;;;;;;;;4997724;28;20968;-91
2021/12/04 07:54:18;;;;;;;0.40;0.23;;;4.60;99.90;;;;;;4998886;28;20469;-91
2021/12/04 07:56:45;;;;;;;0.77;0.60;;;4.60;99.90;;;;;;4997959;28;20458;-93
2021/12/04 07:59:14;;;;;;;0.90;0.80;;;4.70;99.90;;;;;;4997549;28;21019;-92
2021/12/04 08:01:41;;;;;;;0.70;0.70;;;;;;;;;;4997258;28;20465;-92
2021/12/04 08:04:08;;;;;;;0.97;0.87;;;;;;;;;;4996525;28;20489;-90
2021/12/04 08:06:35;;;;;;;0.40;0.33;;;;;;;;;;4994936;28;20442;-91
2021/12/04 08:09:04;;;;;;;0.40;0.30;;;4.70;99.90;;;;;;4997111;28;20500;-91
2021/12/04 08:11:31;;;;;;;23.83;13.50;;;;;;;;;;4992914;28;20442;-92
2021/12/04 08:13:58;;;;;;;1.67;0.70;;;;;;;;;;4997047;28;20445;-92
2021/12/04 08:16:25;;;;;;;0.50;0.50;;;;;;;;;;4992946;28;20454;-90
2021/12/04 08:18:57;;;;;;;0.40;0.30;;;4.80;99.90;;;;;;4992069;28;20453;-92
2021/12/04 08:21:25;;;;;;;0.60;0.50;;;;;;;;;;4998490;28;20438;-92
2021/12/04 08:23:53;;;;;;;0.90;0.50;;;;;;;;;;4993072;28;20489;-90
2021/12/04 08:26:21;;;;;;;0.80;0.70;;;5.00;99.90;;;;;;4996300;28;20449;-89
2021/12/04 08:28:50;;;;;;;1.10;1.00;;;;;;;;;;4993132;28;20445;-90
2021/12/04 08:31:17;;;;;;;0.70;0.60;;;;;;;;;;4993764;28;20461;-91
2021/12/04 08:33:45;;;;;;;2.10;1.27;;;;;;;;;;4995743;28;20454;-88
2021/12/04 08:36:12;;;;;;;0.40;0.30;;;;;;;;;;4995743;28;20457;-89
2021/12/04 08:38:42;;;;;;;0.60;0.60;;;;;;;;;;4993000;28;20992;-93
2021/12/04 08:41:09;;;;;;;0.60;0.33;;;;;;;;;;4996165;28;20544;-91
2021/12/04 08:43:37;;;;;;;1.30;1.10;;;5.10;99.90;;;;;;4996567;28;20848;-91
2021/12/04 08:46:04;;;;;;;0.50;0.30;;;;;;;;;;4996203;28;20797;-91
2021/12/04 08:48:33;;;;;;;1.13;0.80;;;;;;;;;;4995631;28;20438;-90
2021/12/04 08:51:01;;;;;;;0.43;0.37;;;5.20;99.90;;;;;;4994829;28;20466;-92
2021/12/04 08:53:29;;;;;;;0.40;0.40;;;5.20;99.90;;;;;;4997047;28;20434;-90
2021/12/04 08:55:56;;;;;;;0.40;0.33;;;;;;;;;;4994528;28;20461;-92
2021/12/04 08:58:23;;;;;;;0.57;0.57;;;;;;;;;;4992942;28;20481;-93
2021/12/04 09:00:54;;;;;;;2.10;1.90;;;5.30;99.90;;;;;;4995210;28;20500;-91
2021/12/04 09:03:24;;;;;;;0.40;0.40;;;5.30;99.90;;;;;;4997523;28;20477;-94
2021/12/04 09:05:51;;;;;;;0.30;0.20;;;;;;;;;;4993336;28;20859;-91
2021/12/04 09:08:19;;;;;;;3.83;0.83;;;5.40;99.90;;;;;;4996446;28;20456;-93
2021/12/04 09:10:47;;;;;;;0.50;0.50;;;;;;;;;;4996616;28;20445;-89
2021/12/04 09:13:15;;;;;;;1.30;0.80;;;;;;;;;;4991498;28;20923;-91
2021/12/04 09:15:42;;;;;;;0.60;0.60;;;5.50;99.90;;;;;;4995568;28;20926;-89
2021/12/04 09:18:11;;;;;;;0.40;0.40;;;;;;;;;;4995591;28;20933;-91
2021/12/04 09:20:38;;;;;;;2.30;1.00;;;;;;;;;;4994925;28;20960;-89
2021/12/04 09:23:12;;;;;;;0.50;0.30;;;5.70;99.90;;;;;;4995925;28;20913;-90
2021/12/04 09:25:43;;;;;;;0.63;0.40;;;;;;;;;;4995479;28;20968;-89
2021/12/04 09:28:18;;;;;;;0.50;0.40;;;;;;;;;;4995361;28;20450;-90
2021/12/04 09:31:10;;;;;;;0.40;0.30;;;;;;;;;;4996046;28;20453;-89
2021/12/04 09:34:08;;;;;;;0.80;0.50;;;5.80;99.90;;;;;;4997376;28;20449;-92
2021/12/04 10:13:18;;;;;;;2.43;0.90;;;;;;;;;;4922586;28;20437;-88
2021/12/04 10:16:13;;;;;;;1.20;0.60;;;;;;;;;;4976731;28;20963;-91
2021/12/04 10:18:50;;;;;;;0.93;0.67;;;;;;;;;;4975294;28;20446;-91
2021/12/04 10:32:39;;;;;;;0.50;0.40;;;7.30;99.90;;;;;;4975175;28;20530;-89
2021/12/04 10:35:11;;;;;;;0.40;0.20;;;7.40;99.90;;;;;;4974314;28;20458;-89
2021/12/04 10:37:50;;;;;;;0.60;0.50;;;7.40;99.90;;;;;;4970294;28;20496;-89
2021/12/04 10:40:21;;;;;;;0.40;0.33;;;7.40;99.90;;;;;;4974182;28;20515;-91
2021/12/04 10:42:52;;;;;;;0.40;0.40;;;7.50;99.90;;;;;;4975387;28;20454;-93
2021/12/04 10:45:19;;;;;;;0.53;0.37;;;;;;;;;;4973623;28;21021;-89
2021/12/04 10:47:56;;;;;;;0.60;0.43;;;7.60;99.90;;;;;;4978927;28;20450;-89
2021/12/04 10:50:30;;;;;;;0.90;0.53;;;;;;;;;;4974961;28;20438;-89
2021/12/04 10:52:58;;;;;;;0.87;0.43;;;;;;;;;;4975539;28;20851;-90
2021/12/04 10:55:32;;;;;;;2.57;0.57;;;7.70;99.90;;;;;;4971536;28;20581;-91
2021/12/04 11:01:02;;;;;;;2.50;0.40;;;7.80;99.90;;;;;;4975555;28;20458;-90
2021/12/04 11:03:43;;;;;;;0.73;0.47;;;7.80;99.90;;;;;;4974677;28;20458;-91
2021/12/04 11:28:33;;;;;;;0.50;0.50;;;8.20;99.90;;;;;;4970579;28;20485;-91
2021/12/04 11:37:03;;;;;;;1.40;1.20;;;;;;;;;;5047236;28;20456;-90
2021/12/04 11:42:23;;;;;;;0.40;0.30;;;8.10;99.90;;;;;;5042012;28;20446;-91
2021/12/04 11:45:03;;;;;;;0.70;0.57;;;8.20;99.90;;;;;;5047865;28;20509;-90
2021/12/04 11:47:37;;;;;;;1.30;0.77;;;8.20;99.90;;;;;;5043993;28;20439;-91
2021/12/04 11:50:14;;;;;;;1.80;1.07;;;;;;;;;;5046131;28;20911;-90
2021/12/04 11:52:46;;;;;;;1.83;1.13;;;8.20;99.90;;;;;;5046573;28;20534;-92
2021/12/04 11:55:13;;;;;;;1.93;0.97;;;;;;;;;;5041958;28;20459;-91
2021/12/04 11:57:42;;;;;;;0.60;0.40;;;;;;;;;;5047876;28;20436;-91
2021/12/04 12:00:16;;;;;;;1.63;1.20;;;8.30;99.90;;;;;;5039954;28;20452;-91
2021/12/04 12:02:44;;;;;;;0.60;0.60;;;;;;;;;;5042925;28;20451;-90
2021/12/04 12:05:17;;;;;;;1.73;1.03;;;8.40;99.90;;;;;;5041292;28;20491;-91
2021/12/04 12:07:54;;;;;;;0.80;0.70;;;8.40;99.90;;;;;;5049127;23;20491;-91
2021/12/04 12:10:21;;;;;;;0.57;0.50;;;;;;;;;;5039624;28;21005;-92
2021/12/04 12:12:49;;;;;;;2.00;0.50;;;;;;;;;;5040720;28;20443;-89
2021/12/04 12:15:28;;;;;;;1.23;0.60;;;8.40;99.90;;;;;;5042826;28;20452;-93
2021/12/04 12:17:55;;;;;;;0.83;0.60;;;;;;;;;;5033656;28;20466;-92
2021/12/04 12:20:38;;;;;;;1.40;0.90;;;8.40;99.90;;;;;;5034455;28;20946;-93
2021/12/04 12:23:08;;;;;;;1.73;0.83;;;8.40;99.90;;;;;;5033157;28;21001;-92
2021/12/04 12:34:15;;;;;;;0.70;0.40;;;;;;;;;;5035146;28;20940;-90
2021/12/04 12:36:41;;;;;;;1.73;0.50;;;;;;;;;;5035897;28;20514;-95
2021/12/04 12:39:18;;;;;;;0.50;0.40;;;8.30;99.90;;;;;;5032970;28;20428;-90
2021/12/04 12:41:48;;;;;;;0.87;0.50;;;8.30;99.90;;;;;;5032405;28;20450;-94
2021/12/04 12:44:18;;;;;;;0.60;0.50;;;8.20;99.90;;;;;;5034008;28;21047;-89
2021/12/04 12:46:49;;;;;;;8.47;4.33;;;8.30;99.90;;;;;;5043044;28;20496;-92
2021/12/04 12:49:24;;;;;;;15.97;7.40;;;8.30;99.90;;;;;;5042590;28;20444;-91
2021/12/04 12:51:58;;;;;;;3.00;2.30;;;8.30;99.90;;;;;;5041339;28;20463;-93
2021/12/04 12:54:29;;;;;;;1.00;0.90;;;8.30;99.90;;;;;;5043930;28;20457;-94
2021/12/04 12:57:01;;;;;;;0.97;0.50;;;;;;;;;;5034812;28;20436;-94
2021/12/04 13:11:35;;;;;;;2.50;0.80;;;;;;;;;;5037802;28;20448;-93
2021/12/04 13:13:52;;;;;;;0.93;0.70;;;;;;;;;;5043991;28;20478;-89
2021/12/04 13:16:21;;;;;;;1.13;0.73;;;8.50;99.90;;;;;;5040543;28;20916;-92
2021/12/04 13:18:56;;;;;;;3.57;2.50;;;8.20;99.90;;;;;;4999739;28;20500;-91
2021/12/04 13:21:24;;;;;;;0.40;0.30;;;;;;;;;;4999704;28;20453;-91
2021/12/04 13:23:54;;;;;;;0.50;0.40;;;8.20;99.90;;;;;;5002059;28;20446;-91
2021/12/04 13:26:26;;;;;;;1.27;0.60;;;;;;;;;;5001416;28;20438;-92
2021/12/04 13:28:53;;;;;;;0.40;0.40;;;8.20;99.90;;;;;;5004147;28;20438;-90
2021/12/04 13:31:21;;;;;;;0.50;0.30;;;8.20;99.90;;;;;;4999055;28;20612;-91
2021/12/04 13:33:51;;;;;;;0.63;0.37;;;8.20;99.90;;;;;;5001443;28;20477;-89
2021/12/04 13:36:26;;;;;;;0.50;0.50;;;;;;;;;;5002850;28;20484;-93
2021/12/04 13:38:57;;;;;;;0.50;0.50;;;8.20;99.90;;;;;;5041498;28;20447;-90
2021/12/04 13:41:25;;;;;;;0.50;0.30;;;;;;;;;;5041209;28;20440;-92
2021/12/04 13:43:53;;;;;;;0.60;0.60;;;8.20;99.90;;;;;;5033446;28;20831;-92
2021/12/04 13:46:20;;;;;;;1.27;0.90;;;;;;;;;;5039711;28;20433;-91
2021/12/04 13:48:47;;;;;;;3.30;1.77;;;;;;;;;;5039125;28;20455;-93
2021/12/04 13:51:15;;;;;;;0.67;0.50;;;8.20;99.90;;;;;;5003479;28;20452;-91
2021/12/04 13:53:46;;;;;;;1.27;0.40;;;8.20;99.90;;;;;;5035748;28;20448;-90
2021/12/04 13:56:15;;;;;;;0.50;0.40;;;8.20;99.90;;;;;;5033241;28;20519;-90
2021/12/04 13:58:46;;;;;;;1.30;0.60;;;;;;;;;;5035996;28;20927;-91
2021/12/04 14:01:14;;;;;;;0.40;0.40;;;8.10;99.90;;;;;;5035104;28;20440;-89
2021/12/04 14:03:41;;;;;;;1.27;0.63;;;;;;;;;;5034021;28;20452;-91
2021/12/04 14:06:11;;;;;;;3.40;2.80;;;8.10;99.90;;;;;;5038861;28;20490;-91
2021/12/04 14:08:38;;;;;;;6.00;2.23;;;;;;;;;;5015752;28;20485;-90
2021/12/04 14:11:07;;;;;;;8.17;4.50;;;;;;;;;;5018799;28;20779;-90
2021/12/04 14:13:37;;;;;;;4.93;2.20;;;8.00;99.90;;;;;;5018080;28;20459;-89
2021/12/04 14:16:05;;;;;;;1.63;0.90;;;8.10;99.90;;;;;;5019452;28;20429;-89
2021/12/04 14:18:34;;;;;;;0.90;0.83;;;;;;;;;;5012112;28;20433;-90
2021/12/04 14:21:02;;;;;;;0.90;0.63;;;8.10;99.90;;;;;;4997007;28;20537;-91
2021/12/04 14:23:30;;;;;;;1.63;1.50;;;8.00;99.90;;;;;;4990976;28;20460;-90
2021/12/04 14:26:02;;;;;;;0.40;0.30;;;;;;;;;;5034744;28;20499;-89
2021/12/04 14:28:36;;;;;;;0.60;0.53;;;8.00;99.90;;;;;;5027599;28;20952;-90
2021/12/04 14:31:03;;;;;;;1.27;1.17;;;;;;;;;;5018402;28;20445;-91
2021/12/04 14:33:30;;;;;;;3.40;1.10;;;;;;;;;;5016778;28;20434;-91
2021/12/04 14:35:59;;;;;;;2.83;2.10;;;;;;;;;;5033463;28;20512;-91
2021/12/04 14:38:30;;;;;;;0.90;0.90;;;7.80;99.90;;;;;;5036975;28;20432;-90
2021/12/04 14:41:01;;;;;;;0.50;0.30;;;7.90;99.90;;;;;;5020256;28;20451;-89
2021/12/04 14:43:32;;;;;;;0.97;0.60;;;7.80;99.90;;;;;;5021558;28;20457;-91
2021/12/04 14:46:00;;;;;;;0.90;0.70;;;;;;;;;;5024276;28;20595;-89
2021/12/04 14:48:33;;;;;;;0.80;0.57;;;7.80;99.90;;;;;;5021128;28;20460;-91
2021/12/04 14:51:05;;;;;;;0.63;0.50;;;7.80;99.90;;;;;;5021471;28;20452;-91
2021/12/04 14:53:34;;;;;;;0.70;0.60;;;7.80;99.90;;;;;;5019770;28;20452;-90
2021/12/04 14:56:01;;;;;;;1.13;0.50;;;;;;;;;;5017478;28;20465;-90
2021/12/04 14:58:31;;;;;;;6.07;2.00;;;7.80;99.90;;;;;;5015952;28;20950;-89
2021/12/04 15:01:00;;;;;;;1.13;0.47;;;;;;;;;;5035444;28;20947;-91
2021/12/04 15:03:35;;;;;;;0.40;0.30;;;7.80;99.90;;;;;;5039985;28;20452;-90
2021/12/04 15:06:05;;;;;;;1.30;1.10;;;;;;;;;;5041701;28;20505;-91
2021/12/04 15:08:35;;;;;;;1.40;1.30;;;7.80;99.90;;;;;;5056003;28;20486;-90
2021/12/04 15:11:04;;;;;;;1.33;0.50;;;7.80;99.90;;;;;;5051010;28;20463;-91
2021/12/04 15:13:34;;;;;;;1.47;1.27;;;7.80;99.90;;;;;;5054733;28;20926;-91
2021/12/04 15:16:05;;;;;;;1.80;0.97;;;7.80;99.90;;;;;;5050223;28;20784;-91
2021/12/04 15:18:35;;;;;;;1.10;0.90;;;7.70;99.90;;;;;;5014898;28;20475;-91
2021/12/04 15:21:04;;;;;;;10.33;1.40;;;7.80;99.90;;;;;;5015396;28;20452;-91
2021/12/04 15:23:32;;;;;;;2.83;1.40;;;;;;;;;;5015396;28;20797;-90
2021/12/04 15:26:07;;;;;;;1.07;0.47;;;7.80;99.90;;;;;;5019294;28;20515;-91
2021/12/04 15:28:34;;;;;;;1.90;0.57;;;;;;;;;;5017992;28;20455;-90
2021/12/04 15:31:02;;;;;;;1.70;1.27;;;7.90;99.90;;;;;;5015186;28;20468;-91
2021/12/04 15:33:30;;;;;;;2.20;2.00;;;7.90;99.90;;;;;;5017764;28;20448;-91
2021/12/04 15:36:00;;;;;;;2.67;2.37;;;7.90;99.90;;;;;;5018962;28;20507;-90
2021/12/04 15:38:38;;;;;;;1.90;1.30;;;7.80;99.90;;;;;;5019457;28;20817;-91
2021/12/04 15:41:13;;;;;;;1.03;0.80;;;7.80;99.90;;;;;;5017864;28;20520;-90
2021/12/04 15:43:53;;;;;;;1.70;1.57;;;;;;;;;;5022020;28;20463;-89
2021/12/04 15:46:29;;;;;;;3.30;1.00;;;;;;;;;;5022224;28;20491;-89
2021/12/04 15:54:48;;;;;;;0.90;0.60;;;8.00;99.90;;;;;;5016401;23;20524;-90
2021/12/04 15:57:20;;;;;;;1.20;0.90;;;;;;;;;;5034304;22;20476;-90
2021/12/04 15:59:52;;;;;;;0.70;0.50;;;8.00;99.90;;;;;;5055971;22;20484;-88
2021/12/04 16:02:22;;;;;;;1.30;1.17;;;8.00;99.90;;;;;;5044360;28;20455;-90
2021/12/04 16:04:50;;;;;;;1.83;1.60;;;;;;;;;;5042479;28;20535;-90
2021/12/04 16:07:29;;;;;;;0.80;0.70;;;8.10;99.90;;;;;;5041088;28;20455;-89
2021/12/04 16:10:03;;;;;;;1.83;1.10;;;8.10;99.90;;;;;;5040860;28;20447;-89
2021/12/04 16:12:31;;;;;;;2.83;2.37;;;;;;;;;;5039933;28;20539;-89
2021/12/04 16:14:59;;;;;;;2.20;1.83;;;8.10;99.90;;;;;;5051256;22;20494;-90
2021/12/04 16:17:26;;;;;;;1.60;1.50;;;;;;;;;;5055707;22;20499;-88
2021/12/04 16:22:21;;;;;;;1.77;1.23;;;;;;;;;;5045918;22;20554;-90
2021/12/04 16:24:53;;;;;;;11.47;7.70;;;;;;;;;;5043872;28;20206;-90
2021/12/04 16:27:24;;;;;;;60.53;41.77;;;;;;;;;;5036859;28;20468;-89
2021/12/04 16:29:55;;;;;;;32.77;27.20;;;;;;;;;;5026213;28;20510;-90
2021/12/04 16:32:40;;;;;;;22.33;17.63;;;;;;;;;;5025007;28;20492;-87
2021/12/04 16:35:22;;;;;;;4.00;3.10;;;;;;;;;;5023279;28;20515;-89
2021/12/04 16:37:49;;;;;;;6.93;4.90;;;;;;;;;;5019087;28;20452;-88
2021/12/04 16:40:23;;;;;;;2.50;2.23;;;7.80;99.90;;;;;;5019335;28;20449;-88
2021/12/04 16:42:52;;;;;;;10.10;9.10;;;7.70;99.90;;;;;;5020297;28;20452;-88
2021/12/04 16:45:20;;;;;;;0.50;0.50;;;7.70;99.90;;;;;;5025483;28;20488;-89
2021/12/04 16:47:52;;;;;;;3.77;2.20;;;7.70;99.90;;;;;;5031175;28;20955;-88
2021/12/04 16:50:22;;;;;;;3.00;2.80;;;;;;;;;;5023739;28;20462;-90
2021/12/04 16:56:00;;;;;;;7.43;4.30;;;7.70;99.90;;;;;;5042701;28;20513;-89
2021/12/04 16:58:28;;;;;;;2.63;1.40;;;;;;;;;;5042943;28;20882;-89
2021/12/04 17:00:56;;;;;;;3.50;3.13;;;;;;;;;;5041667;28;20534;-88
2021/12/04 17:03:23;;;;;;;2.97;1.17;;;7.70;99.90;;;;;;5042905;28;20455;-89